createdAt,value
2023-01-06T00:38:03.823Z,10.6
2023-01-06T00:48:04.543Z,10.6
2023-01-06T01:08:05.751Z,10.7
2023-01-06T01:18:06.798Z,10.7
2023-01-06T01:48:09.422Z,10.6
2023-01-06T01:58:10.070Z,10.6
2023-01-06T02:18:11.560Z,10.6
2023-01-06T02:28:11.985Z,10.6
2023-01-06T02:38:12.888Z,10.6
2023-01-06T02:58:14.168Z,10.6
2023-01-06T03:08:14.627Z,10.7
2023-01-06T03:28:15.764Z,10.7
2023-01-06T03:38:15.853Z,10.6
2023-01-06T03:48:16.383Z,10.6
2023-01-06T03:58:16.894Z,10.6
2023-01-06T04:08:17.588Z,10.5
2023-01-06T04:38:18.858Z,10.6
2023-01-06T04:48:19.157Z,10.6
2023-01-06T04:58:19.506Z,10.6
2023-01-06T05:08:20.023Z,10.7
2023-01-06T05:18:20.461Z,10.7
2023-01-06T05:28:21.214Z,10.9
2023-01-06T05:38:21.772Z,10.9
2023-01-06T05:48:22.728Z,10.9
2023-01-06T06:08:24.131Z,10.8
2023-01-06T06:18:25.155Z,10.8
2023-01-06T06:48:28.236Z,10.8
2023-01-06T06:58:28.414Z,10.7
2023-01-06T07:28:30.102Z,10.8
2023-01-06T07:38:30.716Z,10.8
2023-01-06T07:48:31.009Z,10.8
2023-01-06T07:58:31.274Z,10.9
2023-01-06T08:08:31.508Z,10.9
2023-01-06T08:18:32.572Z,10.8
2023-01-06T08:38:33.721Z,10.6
2023-01-06T08:58:35.495Z,10.5
2023-01-06T09:08:36.244Z,10.6
2023-01-06T09:28:37.447Z,10.4
2023-01-06T09:38:37.907Z,10.3
2023-01-06T09:48:38.368Z,10.3
2023-01-06T09:58:38.857Z,10.5
2023-01-06T10:08:38.969Z,10.6
2023-01-06T10:28:39.560Z,10.9
2023-01-06T10:38:39.899Z,11
2023-01-06T10:48:40.027Z,11
2023-01-06T10:58:40.307Z,11
2023-01-06T11:08:40.399Z,11.1
2023-01-06T11:28:41.665Z,11.2
2023-01-06T11:38:42.019Z,11.5
2023-01-06T11:58:43.648Z,11.6
2023-01-06T12:08:44.509Z,11.6
2023-01-06T12:18:44.738Z,11.5
2023-01-06T12:28:45.656Z,11.6
2023-01-06T12:38:46.265Z,11.6
2023-01-06T12:48:46.624Z,11.9
2023-01-06T12:58:47.544Z,12
2023-01-06T13:08:47.812Z,12.1
2023-01-06T13:28:49.628Z,12.4
2023-01-06T13:38:50.457Z,12.3
2023-01-06T13:48:51.241Z,12.3
2023-01-06T13:58:51.698Z,12
2023-01-06T14:08:52.339Z,11.7
2023-01-06T14:18:53.405Z,11.7
2023-01-06T14:28:53.550Z,11.7
2023-01-06T14:38:54.402Z,11.7
2023-01-06T14:48:55.435Z,11.6
2023-01-06T14:58:56.342Z,11.3
2023-01-06T15:08:56.863Z,11.2
2023-01-06T15:18:57.324Z,11.2
2023-01-06T15:28:57.761Z,11.1
2023-01-06T15:38:58.546Z,10.9
2023-01-06T15:48:59.066Z,11
2023-01-06T16:09:00.192Z,11
2023-01-06T16:19:00.553Z,11
2023-01-06T16:29:01.126Z,11
2023-01-06T16:39:01.474Z,11
2023-01-06T16:49:02.320Z,10.9
2023-01-06T16:59:02.555Z,10.9
2023-01-06T17:09:03.195Z,10.8
2023-01-06T17:19:04.077Z,10.9
2023-01-06T17:29:04.834Z,11
2023-01-06T17:39:05.431Z,11
2023-01-06T17:59:07.268Z,10.7
2023-01-06T18:09:07.690Z,10.8
2023-01-06T18:19:08.421Z,10.8
2023-01-06T18:39:09.094Z,11
2023-01-06T18:49:09.697Z,11
2023-01-06T18:59:10.049Z,11.1
2023-01-06T19:09:10.967Z,11.1
2023-01-06T19:19:11.456Z,11.1
2023-01-06T19:39:12.215Z,11.1
2023-01-06T19:49:12.677Z,11
2023-01-06T19:59:13.752Z,11
2023-01-06T20:29:16.106Z,11
2023-01-06T20:39:16.902Z,10.9
2023-01-06T20:59:18.347Z,10.5
2023-01-06T21:09:19.259Z,10.3
2023-01-06T21:19:20.176Z,10.3
2023-01-06T21:29:21.056Z,10.3
2023-01-06T21:39:21.556Z,10.4
2023-01-06T21:59:22.692Z,10.6
2023-01-06T22:09:23.633Z,10.6
2023-01-06T22:39:24.725Z,10.6
2023-01-06T22:49:25.327Z,10.6
2023-01-06T22:59:25.649Z,10.5
2023-01-06T23:09:25.993Z,10.5
2023-01-06T23:19:26.298Z,10.5
2023-01-06T23:29:26.939Z,10.5
2023-01-06T23:49:28.526Z,10.7
2023-01-06T23:59:28.651Z,10.7
